Time;durP1;ratioP1;P1;durP2;ratioP2;P2;SDS_P1;SDS_P2;PMS_P1;PMS_P2;Temp;Humidity;BMP_temperature;BMP_pressure;BME280_temperature;BME280_humidity;BME280_pressure;Samples;Min_cycle;Max_cycle;Signal;HPM_P1;HPM_P2
2023/11/29 00:02:55;;;;;;;;;1.00;1.00;;;;;15.79;57.27;99585.06;146630;608;46020;-76
2023/11/29 00:06:07;;;;;;;;;1.00;0.33;;;;;15.78;57.08;99601.62;146627;583;46016;-76
2023/11/29 00:09:12;;;;;;;;;1.00;1.00;;;;;15.79;56.27;99599.88;146630;592;46011;-75
2023/11/29 00:12:31;;;;;;;;;0.67;0.67;;;;;15.81;55.54;99608.62;146621;586;46016;-74
2023/11/29 00:15:23;;;;;;;;;1.00;0.00;;;;;15.91;55.20;99613.09;146628;580;46020;-73
2023/11/29 00:18:25;;;;;;;;;0.00;0.00;;;;;15.96;55.14;99608.81;146625;579;46016;-75
2023/11/29 00:21:20;;;;;;;;;0.00;0.00;;;;;15.98;54.99;99607.13;146630;600;46020;-74
2023/11/29 00:24:17;;;;;;;;;0.00;0.00;;;;;15.94;55.18;99614.03;146625;637;46016;-74
2023/11/29 00:27:19;;;;;;;;;2.33;0.00;;;;;15.96;55.17;99623.62;146627;569;46010;-75
2023/11/29 00:30:27;;;;;;;;;0.00;0.00;;;;;15.92;55.63;99612.28;146625;625;46014;-73
2023/11/29 00:33:24;;;;;;;;;1.00;0.00;;;;;15.89;54.91;99602.66;146634;580;46010;-74
2023/11/29 00:36:28;;;;;;;;;1.00;0.00;;;;;15.92;55.62;99607.03;146625;593;46016;-72
2023/11/29 00:39:30;;;;;;;;;1.00;0.00;;;;;15.93;54.65;99607.03;146626;669;46010;-73
2023/11/29 00:42:24;;;;;;;;;2.00;1.00;;;;;16.06;55.14;99609.81;146713;565;45022;-70
2023/11/29 00:45:30;;;;;;;;;0.67;0.67;;;;;16.23;54.41;99610.88;146625;665;46018;-72
2023/11/29 00:48:25;;;;;;;;;2.00;1.00;;;;;16.32;54.50;99604.84;146626;564;46010;-71
2023/11/29 00:51:27;;;;;;;;;1.00;0.33;;;;;16.34;54.67;99600.50;146625;633;46016;-72
2023/11/29 00:54:36;;;;;;;;;2.00;0.00;;;;;16.31;54.37;99601.34;146628;595;46021;-77
2023/11/29 00:57:15;;;;;;;;;0.67;0.00;;;;;16.32;53.18;99600.50;146706;584;47014;-77
2023/11/29 01:00:25;;;;;;;;;0.00;0.00;;;;;16.39;54.71;99604.06;146626;575;46031;-79
2023/11/29 01:03:17;;;;;;;;;0.33;0.33;;;;;16.41;53.97;99599.69;146624;596;46020;-81
2023/11/29 01:06:11;;;;;;;;;0.33;0.33;;;;;16.41;53.79;99618.00;146620;579;46013;-79
2023/11/29 01:09:07;;;;;;;;;1.00;1.00;;;;;16.42;54.62;99629.34;146621;671;47010;-80
2023/11/29 01:12:14;;;;;;;;;7.00;6.00;;;;;16.39;54.21;99612.78;146618;589;46016;-79
2023/11/29 01:15:27;;;;;;;;;3.00;3.00;;;;;15.39;55.44;99451.34;146624;571;46021;-77
2023/11/29 01:18:27;;;;;;;;;2.00;1.00;;;;;16.34;54.59;99616.19;146619;569;46016;-74
2023/11/29 01:21:31;;;;;;;;;1.67;1.00;;;;;16.36;54.40;99622.34;146620;587;46021;-78
2023/11/29 01:24:29;;;;;;;;;0.00;0.00;;;;;16.44;53.35;99622.41;146619;577;47014;-80
2023/11/29 01:27:30;;;;;;;;;0.00;0.00;;;;;16.53;52.57;99619.87;146623;602;46010;-81
2023/11/29 01:30:22;;;;;;;;;3.00;0.00;;;;;16.61;51.81;99626.94;146710;564;46022;-81
2023/11/29 01:33:27;;;;;;;;;1.00;0.00;;;;;16.75;52.41;99634.03;146625;581;46035;-78
2023/11/29 01:36:33;;;;;;;;;2.00;1.67;;;;;16.80;53.73;99645.47;146631;563;46030;-77
2023/11/29 01:39:28;;;;;;;;;1.00;0.00;;;;;16.77;52.41;99635.84;146625;625;47016;-76
2023/11/29 01:42:57;;;;;;;;;1.00;1.00;;;;;16.59;54.02;99619.94;146633;573;46010;-75
2023/11/29 01:45:41;;;;;;;;;3.00;2.00;;;;;16.66;52.99;99634.81;146711;570;46023;-78
2023/11/29 01:48:45;;;;;;;;;1.00;0.00;;;;;16.59;52.66;99630.41;146628;602;46018;-77
2023/11/29 01:52:06;;;;;;;;;4.00;3.00;;;;;16.52;53.94;99641.69;146628;609;47020;-75
2023/11/29 01:55:19;;;;;;;;;5.50;4.00;;;;;16.40;53.06;99634.56;146627;584;46012;-74
2023/11/29 01:58:30;;;;;;;;;2.00;1.67;;;;;16.48;52.03;99639.88;146631;611;45020;-73
2023/11/29 02:01:13;;;;;;;;;1.00;1.00;;;;;16.51;51.48;99640.81;146710;564;46023;-76
2023/11/29 02:04:17;;;;;;;;;2.33;2.33;;;;;16.59;52.63;99638.25;146627;625;46014;-77
2023/11/29 02:07:26;;;;;;;;;0.67;0.00;;;;;16.58;51.53;99629.53;146631;651;46012;-71
2023/11/29 02:10:21;;;;;;;;;1.00;0.00;;;;;16.57;51.65;99630.41;146623;565;46017;-71
2023/11/29 02:13:33;;;;;;;;;0.00;0.00;;;;;16.63;53.51;99642.63;146630;593;47010;-72
2023/11/29 02:16:50;;;;;;;;;2.00;0.00;;;;;15.90;51.93;99475.44;146627;569;46016;-74
2023/11/29 02:20:30;;;;;;;;;1.67;1.67;;;;;16.77;49.15;99607.03;146629;583;46020;-74
2023/11/29 02:23:58;;;;;;;;;1.67;1.67;;;;;17.01;51.99;99623.81;146625;612;46014;-76
2023/11/29 02:27:09;;;;;;;;;2.33;1.33;;;;;16.93;52.07;99608.03;146625;579;47010;-87
2023/11/29 02:30:12;;;;;;;;;0.00;0.00;;;;;17.01;51.42;99631.69;146624;617;47015;-88
2023/11/29 02:33:09;;;;;;;;;1.00;0.00;;;;;16.98;50.69;99635.16;146630;575;46021;-88
2023/11/29 02:36:14;;;;;;;;;3.67;3.67;;;;;16.95;50.79;99635.13;146626;580;45016;-76
2023/11/29 02:39:11;;;;;;;;;1.33;1.33;;;;;16.93;50.74;99649.94;146631;564;46021;-76
2023/11/29 02:42:20;;;;;;;;;7.00;4.33;;;;;16.91;51.90;99651.66;146624;581;46016;-83
2023/11/29 02:45:18;;;;;;;;;2.33;2.00;;;;;16.85;51.08;99654.22;146631;576;46020;-79
2023/11/29 02:48:15;;;;;;;;;0.67;0.67;;;;;16.80;51.19;99653.31;146627;569;46012;-75
2023/11/29 02:51:16;;;;;;;;;2.00;2.00;;;;;16.75;51.98;99655.88;146629;614;46012;-80
2023/11/29 02:54:37;;;;;;;;;;;;;;;;;;;;;
2023/11/29 02:57:34;;;;;;;;;6.00;4.33;;;;;16.54;52.22;99656.53;146629;578;46020;-76
2023/11/29 03:00:26;;;;;;;;;1.67;1.67;;;;;16.41;52.08;99657.25;146621;572;47012;-77
2023/11/29 03:03:22;;;;;;;;;5.25;3.00;;;;;16.36;52.33;99648.50;146621;580;46012;-78
2023/11/29 03:06:05;;;;;;;;;3.00;3.00;;;;;16.33;50.97;99651.09;146710;569;46013;-74
2023/11/29 03:09:07;;;;;;;;;3.67;3.67;;;;;16.35;52.32;99641.50;146627;583;47012;-74
2023/11/29 03:12:08;;;;;;;;;3.00;3.00;;;;;16.35;52.98;99646.72;146629;626;46020;-76
2023/11/29 03:15:43;;;;;;;;;2.00;2.00;;;;;15.60;52.60;99534.28;146624;613;46017;-75
2023/11/29 03:18:45;;;;;;;;;3.33;1.33;;;;;16.26;53.05;99644.91;146630;598;46010;-74
2023/11/29 03:21:42;;;;;;;;;3.75;3.00;;;;;16.19;53.06;99657.87;146626;662;46915;-76
2023/11/29 03:24:38;;;;;;;;;5.50;5.00;;;;;16.12;52.74;99657.81;146628;584;46020;-71
2023/11/29 03:27:42;;;;;;;;;3.00;2.00;;;;;16.03;53.20;99656.84;146626;646;46015;-75
2023/11/29 03:30:46;;;;;;;;;1.00;1.00;;;;;15.93;52.78;99661.06;146634;570;46010;-75
2023/11/29 03:33:54;;;;;;;;;;;;;;;;;;;;;
2023/11/29 03:37:21;;;;;;;;;1.33;1.33;;;;;15.24;54.26;99553.00;146632;592;46011;-75
2023/11/29 03:40:16;;;;;;;;;1.00;1.00;;;;;15.78;53.91;99679.16;146628;622;46016;-75
2023/11/29 03:43:14;;;;;;;;;1.67;1.67;;;;;15.69;52.70;99670.34;146629;612;46033;-71
2023/11/29 03:46:13;;;;;;;;;2.00;2.00;;;;;15.64;54.06;99686.81;146625;592;47012;-73
2023/11/29 03:49:12;;;;;;;;;1.33;0.33;;;;;15.53;54.23;99690.97;146627;611;46039;-74
2023/11/29 03:51:53;;;;;;;;;0.00;0.00;;;;;15.41;53.77;99691.66;146706;566;46012;-74
2023/11/29 03:55:03;;;;;;;;;2.33;1.67;;;;;15.35;54.39;99687.22;146621;638;46013;-76
2023/11/29 03:58:04;;;;;;;;;1.33;1.33;;;;;15.31;55.18;99693.25;146623;630;46010;-75
2023/11/29 04:01:02;;;;;;;;;1.67;0.00;;;;;15.30;55.10;99691.50;146617;624;46016;-79
2023/11/29 04:04:08;;;;;;;;;0.67;0.67;;;;;15.30;54.35;99693.25;146622;571;46020;-79
2023/11/29 04:07:13;;;;;;;;;1.00;1.00;;;;;15.31;55.32;99695.00;146618;599;46016;-83
2023/11/29 04:10:11;;;;;;;;;0.33;0.33;;;;;15.33;54.53;99701.13;146624;580;46012;-80
2023/11/29 04:13:22;;;;;;;;;1.00;0.00;;;;;15.37;54.82;99698.59;146618;603;46016;-80
2023/11/29 04:16:35;;;;;;;;;3.00;2.00;;;;;15.46;55.10;99703.06;146623;592;46020;-81
2023/11/29 04:19:31;;;;;;;;;6.00;5.50;;;;;15.56;54.13;99712.81;146618;580;46917;-82
2023/11/29 04:22:28;;;;;;;;;4.00;4.00;;;;;15.63;54.12;99722.47;146622;577;46020;-81
2023/11/29 04:25:31;;;;;;;;;3.00;1.00;;;;;15.67;53.66;99726.94;146621;613;46013;-80
2023/11/29 04:28:33;;;;;;;;;3.33;3.00;;;;;15.73;53.86;99723.53;146624;592;46020;-83
2023/11/29 04:31:47;;;;;;;;;6.00;3.00;;;;;15.76;53.69;99723.56;146621;625;46012;-80
2023/11/29 04:35:03;;;;;;;;;8.25;7.25;;;;;15.63;55.29;99719.87;146625;623;45021;-82
2023/11/29 04:38:15;;;;;;;;;7.25;6.50;;;;;15.69;55.46;99738.28;146621;563;46012;-80
2023/11/29 04:41:22;;;;;;;;;11.75;9.25;;;;;15.64;55.49;99732.09;146622;580;46012;-75
2023/11/29 04:44:34;;;;;;;;;8.25;7.25;;;;;15.56;55.65;99731.09;146617;563;46016;-77
2023/11/29 04:47:33;;;;;;;;;7.75;7.00;;;;;15.51;55.52;99732.75;146622;635;46021;-77
2023/11/29 04:50:32;;;;;;;;;10.25;8.25;;;;;15.44;55.34;99738.72;146619;708;46012;-75
2023/11/29 04:53:51;;;;;;;;;10.75;8.00;;;;;15.35;56.48;99739.47;146620;625;46011;-74
2023/11/29 04:56:46;;;;;;;;;5.00;5.00;;;;;15.28;56.57;99745.44;146619;691;46012;-76
2023/11/29 04:59:43;;;;;;;;;6.25;4.75;;;;;15.19;57.27;99748.78;146623;618;46010;-78
2023/11/29 05:02:37;;;;;;;;;3.33;3.33;;;;;15.08;56.60;99745.12;146621;589;46016;-76
2023/11/29 05:05:49;;;;;;;;;6.67;4.33;;;;;14.95;57.20;99744.03;146623;587;46020;-82
2023/11/29 05:08:43;;;;;;;;;3.25;3.00;;;;;14.90;57.00;99750.00;146618;565;46016;-78
2023/11/29 05:11:37;;;;;;;;;2.33;2.33;;;;;14.89;57.27;99754.38;146624;625;46012;-78
2023/11/29 05:14:31;;;;;;;;;9.25;7.50;;;;;14.83;57.29;99749.03;146710;571;45022;-77
2023/11/29 05:17:26;;;;;;;;;6.00;5.00;;;;;14.87;57.14;99763.88;146624;570;46016;-75
2023/11/29 05:20:50;;;;;;;;;6.00;6.00;;;;;14.82;57.46;99762.03;146629;672;46020;-76
2023/11/29 05:23:42;;;;;;;;;3.33;3.00;;;;;14.85;57.36;99769.91;146619;588;46013;-76
2023/11/29 05:27:23;;;;;;;;;;;;;;;;;;;;;
2023/11/29 05:30:29;;;;;;;;;4.33;3.67;;;;;14.80;58.09;99777.69;146621;662;46013;-75
2023/11/29 05:33:23;;;;;;;;;5.25;5.00;;;;;14.78;58.35;99782.84;146632;646;46020;-76
2023/11/29 05:36:22;;;;;;;;;3.50;3.50;;;;;14.78;57.83;99780.25;146619;579;46016;-74
2023/11/29 05:40:00;;;;;;;;;;;;;;;;;;;;;
2023/11/29 05:43:27;;;;;;;;;8.00;5.25;;;;;14.69;58.38;99777.44;146625;624;46012;-78
2023/11/29 05:46:27;;;;;;;;;16.00;15.50;;;;;14.72;58.94;99803.59;146625;633;46021;-76
2023/11/29 05:49:49;;;;;;;;;10.50;8.25;;;;;14.64;58.82;99794.78;146615;572;46012;-78
2023/11/29 05:52:48;;;;;;;;;4.50;3.50;;;;;14.58;59.15;99810.28;146623;644;47010;-76
2023/11/29 05:56:06;;;;;;;;;3.00;3.00;;;;;14.61;58.88;99799.94;146618;623;46016;-80
2023/11/29 05:59:01;;;;;;;;;6.25;1.75;;;;;14.65;58.96;99806.97;146626;660;47020;-80
2023/11/29 06:02:02;;;;;;;;;0.00;0.00;;;;;14.69;59.00;99805.28;146618;658;46017;-74
2023/11/29 06:05:04;;;;;;;;;3.67;2.00;;;;;14.76;59.54;99815.84;146628;566;46023;-75
2023/11/29 06:08:13;;;;;;;;;22.75;20.75;;;;;14.86;59.04;99810.81;146618;633;46016;-76
2023/11/29 06:11:10;;;;;;;;;1.00;0.00;;;;;14.94;57.57;99820.56;146624;582;46010;-76
2023/11/29 06:14:24;;;;;;;;;7.50;7.00;;;;;13.72;58.18;99573.87;146610;593;46038;-76
2023/11/29 06:17:44;;;;;;;;;10.25;8.75;;;;;15.64;59.85;99807.88;146711;570;45022;-75
2023/11/29 06:20:51;;;;;;;;;12.50;10.50;;;;;16.35;56.12;99836.00;146626;581;46013;-75
2023/11/29 06:23:46;;;;;;;;;17.25;15.75;;;;;16.44;55.13;99834.34;146625;579;46010;-73
2023/11/29 06:26:50;;;;;;;;;10.75;10.00;;;;;16.30;55.63;99849.84;146615;644;46915;-73
2023/11/29 06:29:42;;;;;;;;;7.75;7.00;;;;;16.11;55.49;99849.59;146624;591;46010;-73
2023/11/29 06:32:44;;;;;;;;;5.50;5.00;;;;;15.97;56.82;99858.06;146625;679;46016;-70
2023/11/29 06:35:43;;;;;;;;;3.00;2.50;;;;;15.85;56.90;99856.13;146628;652;46021;-73
2023/11/29 06:38:38;;;;;;;;;5.33;3.67;;;;;15.78;57.77;99864.75;146625;572;47014;-71
2023/11/29 06:41:40;;;;;;;;;4.67;2.67;;;;;15.72;58.99;99870.75;146630;603;46010;-71
2023/11/29 06:44:39;;;;;;;;;17.00;16.75;;;;;15.68;58.97;99874.16;146623;566;46012;-71
2023/11/29 06:47:37;;;;;;;;;11.50;10.00;;;;;15.70;59.30;99881.19;146619;596;46020;-72
2023/11/29 06:50:39;;;;;;;;;20.25;20.25;;;;;15.72;59.71;99883.81;146614;601;48016;-69
2023/11/29 06:53:37;;;;;;;;;11.25;10.50;;;;;15.73;59.43;99887.31;146622;646;46010;-71
2023/11/29 06:56:48;;;;;;;;;10.50;8.25;;;;;15.75;58.68;99885.59;146613;572;47015;-71
2023/11/29 06:59:50;;;;;;;;;4.00;2.67;;;;;15.79;58.35;99896.13;146624;563;46014;-71
2023/11/29 07:02:53;;;;;;;;;6.50;5.25;;;;;15.86;58.20;99903.25;146623;623;46012;-71
2023/11/29 07:05:58;;;;;;;;;6.75;5.75;;;;;15.94;57.87;99908.56;146626;665;46021;-71
2023/11/29 07:08:55;;;;;;;;;11.75;7.50;;;;;16.01;57.57;99914.78;146623;571;46012;-70
2023/11/29 07:11:49;;;;;;;;;8.75;7.00;;;;;16.05;58.47;99901.81;146626;576;46011;-71
2023/11/29 07:14:51;;;;;;;;;10.75;8.75;;;;;16.08;58.56;99907.06;146622;693;47012;-70
2023/11/29 07:17:55;;;;;;;;;3.00;2.00;;;;;16.16;57.96;99917.66;146622;564;46020;-71
2023/11/29 07:20:58;;;;;;;;;3.33;2.67;;;;;16.26;58.04;99916.03;146620;618;46012;-71
2023/11/29 07:23:59;;;;;;;;;4.00;4.00;;;;;16.35;57.25;99931.87;146621;571;46010;-72
2023/11/29 07:27:12;;;;;;;;;9.00;8.00;;;;;16.40;56.96;99923.25;146620;565;46017;-71
2023/11/29 07:30:22;;;;;;;;;8.00;6.25;;;;;16.48;57.44;99941.69;146622;698;47010;-71
2023/11/29 07:33:26;;;;;;;;;5.33;5.33;;;;;16.54;57.50;99946.13;146618;704;46012;-72
2023/11/29 07:36:22;;;;;;;;;16.50;13.25;;;;;16.54;57.05;99951.34;146622;640;46021;-72
2023/11/29 07:39:27;;;;;;;;;18.00;16.50;;;;;16.47;56.83;99953.00;146609;593;46016;-72
2023/11/29 07:42:23;;;;;;;;;17.75;15.50;;;;;16.49;56.35;99958.28;146614;654;46014;-73
2023/11/29 07:45:22;;;;;;;;;32.50;29.25;;;;;16.53;57.69;99953.09;146612;648;46012;-72
2023/11/29 07:48:25;;;;;;;;;15.75;15.75;;;;;16.62;58.05;99950.63;146617;585;46020;-72
2023/11/29 07:51:27;;;;;;;;;24.50;22.75;;;;;16.72;57.83;99948.13;146610;591;47024;-72
2023/11/29 07:54:31;;;;;;;;;4.00;3.00;;;;;16.83;55.02;99952.69;146614;571;46036;-72
2023/11/29 07:57:25;;;;;;;;;6.00;5.00;;;;;16.98;52.81;99953.78;146616;687;47014;-72
2023/11/29 08:00:31;;;;;;;;;11.00;10.00;;;;;17.24;54.61;99952.34;146620;577;47042;-73
2023/11/29 08:03:26;;;;;;;;;17.00;13.00;;;;;17.63;53.35;99955.37;146603;656;48914;-72
2023/11/29 08:06:30;;;;;;;;;14.75;14.75;;;;;17.98;53.30;99967.12;146611;567;47010;-72
2023/11/29 08:09:35;;;;;;;;;6.67;4.00;;;;;18.18;50.21;99953.28;146610;574;46016;-72
2023/11/29 08:12:47;;;;;;;;;7.00;4.33;;;;;18.33;52.16;99965.66;146620;585;46021;-73
2023/11/29 08:15:47;;;;;;;;;9.33;7.67;;;;;18.43;50.69;99959.59;146614;624;47014;-72
2023/11/29 08:18:48;;;;;;;;;2.00;2.00;;;;;18.55;51.42;99962.31;146621;584;46020;-73
2023/11/29 08:21:46;;;;;;;;;1.00;1.00;;;;;18.87;50.85;99969.53;146613;625;47012;-72
2023/11/29 08:24:47;;;;;;;;;1.00;0.00;;;;;19.28;51.03;99980.28;146617;637;46020;-72
2023/11/29 08:27:47;;;;;;;;;0.00;0.00;;;;;19.68;47.96;99963.75;146616;668;46017;-73
2023/11/29 08:30:42;;;;;;;;;0.00;0.00;;;;;20.03;46.60;99974.31;146620;629;46020;-70
2023/11/29 08:33:41;;;;;;;;;0.00;0.00;;;;;20.19;45.34;99962.94;146618;582;46012;-74
2023/11/29 08:36:44;;;;;;;;;1.00;0.00;;;;;20.34;47.42;99959.41;146616;595;47010;-73
2023/11/29 08:39:45;;;;;;;;;4.67;4.67;;;;;20.55;46.18;99960.31;146613;617;46033;-73
2023/11/29 08:42:40;;;;;;;;;3.00;1.00;;;;;20.73;45.43;99958.50;146618;570;46010;-71
2023/11/29 08:45:41;;;;;;;;;3.67;3.67;;;;;20.98;47.07;99968.97;146614;603;46016;-72
2023/11/29 08:48:43;;;;;;;;;1.00;0.00;;;;;21.15;45.46;99969.81;146618;564;46020;-74
2023/11/29 08:51:44;;;;;;;;;2.00;1.00;;;;;21.24;46.23;99976.78;146615;569;47915;-73
2023/11/29 08:54:36;;;;;;;;;1.00;1.00;;;;;21.30;44.61;99979.38;146618;582;46010;-73
2023/11/29 08:57:34;;;;;;;;;0.00;0.00;;;;;21.45;45.29;99975.84;146615;566;47012;-70
2023/11/29 09:00:47;;;;;;;;;0.67;0.67;;;;;21.63;47.32;99973.13;146618;669;46020;-73
2023/11/29 09:03:44;;;;;;;;;0.00;0.00;;;;;21.76;44.63;99966.00;146611;586;47013;-73
2023/11/29 09:06:49;;;;;;;;;0.00;0.00;;;;;21.88;46.08;99972.97;146618;565;47029;-75
2023/11/29 09:10:02;;;;;;;;;1.67;0.00;;;;;22.06;44.33;99977.25;146616;622;46016;-75
2023/11/29 09:13:06;;;;;;;;;11.00;8.00;;;;;22.27;45.43;99971.78;146620;594;47010;-75
2023/11/29 09:16:08;;;;;;;;;1.00;1.00;;;;;22.49;44.17;99966.31;146618;575;47016;-73
2023/11/29 09:19:11;;;;;;;;;25.25;22.50;;;;;22.64;42.69;99966.16;146616;566;47010;-74
2023/11/29 09:22:29;;;;;;;;;;;;;;;;;;;;;
2023/11/29 09:25:39;;;;;;;;;9.00;6.33;;;;;21.26;45.63;99676.22;146618;650;47020;-73
2023/11/29 09:28:37;;;;;;;;;6.33;5.00;;;;;23.02;43.49;99967.56;146618;563;46016;-73
2023/11/29 09:31:30;;;;;;;;;1.00;1.00;;;;;23.09;42.94;99971.91;146617;626;47020;-73
2023/11/29 09:34:30;;;;;;;;;1.00;1.00;;;;;23.18;42.31;99973.56;146612;569;47016;-77
2023/11/29 09:37:33;;;;;;;;;2.00;1.00;;;;;23.24;40.56;99976.09;146621;570;47020;-74
2023/11/29 09:40:27;;;;;;;;;2.00;1.00;;;;;23.17;40.57;99958.56;146616;569;47012;-74
2023/11/29 09:43:40;;;;;;;;;1.33;1.00;;;;;23.10;44.00;99965.69;146622;606;47010;-73
2023/11/29 09:46:44;;;;;;;;;2.00;1.00;;;;;23.01;44.15;99966.69;146610;573;46016;-73
2023/11/29 09:49:49;;;;;;;;;2.00;1.00;;;;;22.96;42.91;99973.81;146615;578;47021;-73
2023/11/29 09:52:49;;;;;;;;;0.00;0.00;;;;;22.91;42.27;99959.72;146615;572;46016;-72
2023/11/29 09:55:47;;;;;;;;;2.33;1.00;;;;;22.78;42.05;99969.56;146620;619;46010;-78
2023/11/29 09:58:52;;;;;;;;;2.33;0.00;;;;;22.69;42.79;99963.50;146610;722;47030;-74
2023/11/29 10:01:51;;;;;;;;;1.00;1.00;;;;;22.37;42.70;99959.41;146621;590;46020;-73
2023/11/29 10:04:57;;;;;;;;;1.67;1.00;;;;;22.02;42.23;99970.22;146618;616;46016;-75
2023/11/29 10:08:10;;;;;;;;;2.33;1.00;;;;;21.73;44.32;99967.78;146616;695;47020;-73
2023/11/29 10:11:07;;;;;;;;;1.00;1.00;;;;;21.51;44.31;99961.75;146613;607;46017;-73
2023/11/29 10:14:15;;;;;;;;;1.00;1.00;;;;;20.69;46.99;99835.59;146621;618;46020;-72
2023/11/29 10:17:18;;;;;;;;;1.67;1.67;;;;;21.31;45.76;99957.44;146637;587;45914;-73
2023/11/29 10:20:20;;;;;;;;;3.33;1.33;;;;;21.23;46.06;99962.72;146640;593;46014;-73
2023/11/29 10:23:25;;;;;;;;;0.00;0.00;;;;;21.34;44.34;99948.59;146637;628;48012;-73
2023/11/29 10:26:28;;;;;;;;;0.00;0.00;;;;;21.50;45.61;99952.97;146645;644;45011;-74
2023/11/29 10:29:51;;;;;;;;;2.33;2.00;;;;;21.81;45.30;99950.16;146640;628;45882;-73
2023/11/29 10:33:10;;;;;;;;;2.00;1.00;;;;;22.19;45.73;99947.22;146641;570;45010;-74
2023/11/29 10:36:19;;;;;;;;;3.67;3.67;;;;;22.54;44.98;99944.25;146639;630;45916;-73
2023/11/29 10:39:36;;;;;;;;;;;;;;;;;;;;;
2023/11/29 10:42:33;;;;;;;;;2.00;1.00;;;;;22.81;42.49;99935.16;146642;561;45012;-74
2023/11/29 10:45:29;;;;;;;;;3.00;1.33;;;;;22.98;42.47;99940.28;146644;582;46010;-72
2023/11/29 10:48:33;;;;;;;;;2.33;1.67;;;;;23.09;42.72;99941.94;146635;627;46016;-73
2023/11/29 10:51:26;;;;;;;;;3.00;2.00;;;;;22.96;40.94;99942.09;146647;646;45010;-75
2023/11/29 10:54:31;;;;;;;;;1.00;1.00;;;;;22.68;43.69;99940.59;146633;564;46017;-72
2023/11/29 10:57:55;;;;;;;;;1.00;1.00;;;;;22.36;44.72;99941.78;146646;563;45010;-72
2023/11/29 11:01:14;;;;;;;;;3.00;1.00;;;;;22.00;42.47;99945.59;146643;580;46012;-74
2023/11/29 11:04:19;;;;;;;;;1.00;1.00;;;;;21.76;45.14;99951.94;146643;572;45010;-72
2023/11/29 11:08:06;;;;;;;;;;;;;;;;;;;;;
2023/11/29 11:11:03;;;;;;;;;1.67;0.00;;;;;21.36;44.75;99946.88;146643;588;46010;-72
2023/11/29 11:14:07;;;;;;;;;1.00;1.00;;;;;21.25;46.15;99949.56;146642;575;45016;-72
2023/11/29 11:17:23;;;;;;;;;5.67;4.00;;;;;21.13;46.96;99950.47;146621;668;46010;-72
2023/11/29 11:21:05;;;;;;;;;3.00;3.00;;;;;20.36;48.28;99828.63;146615;638;47016;-73
2023/11/29 11:24:11;;;;;;;;;3.33;2.33;;;;;20.97;45.77;99948.78;146606;585;48010;-72
2023/11/29 11:27:49;;;;;;;;;4.67;3.00;;;;;20.15;47.82;99810.25;146615;563;46014;-72
2023/11/29 11:31:28;;;;;;;;;5.67;2.67;;;;;20.30;46.86;99834.78;146624;577;46010;-72
2023/11/29 11:34:19;;;;;;;;;6.00;5.00;;;;;21.04;45.37;99934.69;146618;602;46014;-73
2023/11/29 11:37:22;;;;;;;;;4.67;4.00;;;;;21.12;45.01;99939.91;146606;583;47010;-73
2023/11/29 11:40:21;;;;;;;;;4.00;3.00;;;;;21.11;45.74;99946.09;146614;632;46016;-73
2023/11/29 11:43:41;;;;;;;;;6.00;4.00;;;;;20.47;47.41;99828.63;146616;615;47020;-73
2023/11/29 11:46:55;;;;;;;;;5.67;4.00;;;;;21.40;44.72;99946.88;146615;643;46017;-72
2023/11/29 11:49:59;;;;;;;;;3.00;3.00;;;;;21.22;44.34;99850.25;146621;598;46020;-74
2023/11/29 11:52:59;;;;;;;;;3.00;3.00;;;;;22.24;42.84;99939.25;146616;564;46012;-72
2023/11/29 11:56:03;;;;;;;;;1.33;1.33;;;;;22.56;42.96;99936.31;146621;570;46010;-72
2023/11/29 11:59:03;;;;;;;;;2.00;2.00;;;;;22.78;43.35;99935.19;146613;656;47014;-72
2023/11/29 12:02:03;;;;;;;;;3.67;3.67;;;;;22.90;42.34;99947.41;146622;621;47010;-73
2023/11/29 12:04:59;;;;;;;;;3.00;1.33;;;;;23.02;43.54;99935.81;146618;574;46012;-72
2023/11/29 12:08:07;;;;;;;;;2.00;2.00;;;;;23.34;43.55;99932.78;146608;640;46021;-72
2023/11/29 12:11:04;;;;;;;;;1.33;1.33;;;;;23.69;40.94;99928.78;146618;575;46915;-73
2023/11/29 12:14:19;;;;;;;;;2.67;2.67;;;;;24.03;40.35;99933.56;146616;593;46020;-73
2023/11/29 12:17:18;;;;;;;;;4.67;4.00;;;;;24.11;40.23;99935.19;146634;583;45017;-74
2023/11/29 12:20:17;;;;;;;;;3.00;3.00;;;;;23.80;39.91;99939.19;146634;584;45020;-73
2023/11/29 12:23:18;;;;;;;;;8.00;8.00;;;;;23.38;40.33;99934.47;146633;575;46014;-72
2023/11/29 12:26:22;;;;;;;;;4.67;4.67;;;;;22.94;42.40;99937.69;146635;581;46010;-75
2023/11/29 12:29:18;;;;;;;;;3.00;1.00;;;;;22.52;41.90;99942.50;146635;582;45916;-72
2023/11/29 12:32:15;;;;;;;;;6.00;2.00;;;;;22.12;43.03;99950.78;146633;585;45021;-74
2023/11/29 12:35:17;;;;;;;;;2.33;2.33;;;;;21.18;44.22;99845.00;146636;646;45016;-73
2023/11/29 12:38:23;;;;;;;;;2.33;2.00;;;;;21.45;44.21;99942.44;146629;584;46051;-73
2023/11/29 12:41:21;;;;;;;;;4.00;2.00;;;;;21.16;44.81;99947.81;146632;587;45016;-73
2023/11/29 12:44:13;;;;;;;;;1.67;1.00;;;;;20.97;44.63;99952.28;146636;581;45055;-74
2023/11/29 12:47:12;;;;;;;;;3.00;2.00;;;;;20.79;46.48;99954.97;146633;565;46012;-72
2023/11/29 12:50:05;;;;;;;;;3.33;3.00;;;;;20.62;45.28;99951.50;146638;610;45010;-73
2023/11/29 12:53:03;;;;;;;;;4.33;4.33;;;;;20.48;45.96;99959.41;146633;638;45915;-72
2023/11/29 12:55:57;;;;;;;;;6.00;5.00;;;;;20.35;45.48;99955.03;146636;589;46030;-73
2023/11/29 12:59:07;;;;;;;;;4.67;2.00;;;;;20.21;46.38;99948.00;146633;576;46032;-72
2023/11/29 13:02:04;;;;;;;;;2.00;2.00;;;;;20.12;46.66;99960.28;146636;627;45014;-73
2023/11/29 13:04:58;;;;;;;;;4.00;4.00;;;;;20.05;46.24;99957.66;146635;615;45024;-72
2023/11/29 13:08:03;;;;;;;;;;;;;;;;;;;;;
2023/11/29 13:11:05;;;;;;;;;7.25;7.00;;;;;19.97;47.37;99967.31;146635;565;45016;-72
2023/11/29 13:14:03;;;;;;;;;4.33;4.33;;;;;19.95;47.78;99973.44;146635;613;46010;-71
2023/11/29 13:17:09;;;;;;;;;5.00;4.00;;;;;19.92;48.24;99976.06;146617;589;46016;-72
2023/11/29 13:20:28;;;;;;;;;4.00;3.00;;;;;19.89;49.02;99989.22;146622;595;47023;-72
2023/11/29 13:23:29;;;;;;;;;3.00;2.00;;;;;19.87;48.35;99998.84;146612;608;49012;-73
2023/11/29 13:26:32;;;;;;;;;4.00;3.00;;;;;19.82;48.08;99996.22;146618;633;47014;-73
2023/11/29 13:29:38;;;;;;;;;6.00;6.00;;;;;19.21;49.07;99904.00;146614;608;46916;-73
2023/11/29 13:32:39;;;;;;;;;5.00;5.00;;;;;19.69;49.48;100005.84;146620;639;47010;-75
2023/11/29 13:35:43;;;;;;;;;5.00;4.00;;;;;19.62;49.99;100011.91;146612;596;47012;-74
2023/11/29 13:38:38;;;;;;;;;14.75;14.25;;;;;19.54;49.59;100016.28;146606;578;46020;-75
2023/11/29 13:41:40;;;;;;;;;6.00;3.33;;;;;19.48;50.79;100013.63;146610;647;46016;-73
2023/11/29 13:44:37;;;;;;;;;4.00;2.00;;;;;19.42;50.72;100016.25;146615;570;47021;-74
2023/11/29 13:47:50;;;;;;;;;5.00;3.00;;;;;19.36;51.14;100024.97;146611;566;47012;-76
2023/11/29 13:50:58;;;;;;;;;2.00;1.00;;;;;19.30;50.40;100017.94;146617;596;47010;-73
2023/11/29 13:53:55;;;;;;;;;2.00;2.00;;;;;19.27;50.93;100031.06;146610;587;47012;-75
2023/11/29 13:57:04;;;;;;;;;2.67;2.67;;;;;19.24;51.78;100031.03;146621;573;46020;-74
2023/11/29 14:00:04;;;;;;;;;3.67;2.67;;;;;19.19;51.47;100040.69;146617;612;46914;-75
2023/11/29 14:03:06;;;;;;;;;4.00;2.67;;;;;19.16;52.70;100038.03;146617;592;48020;-77
2023/11/29 14:06:11;;;;;;;;;3.00;3.00;;;;;19.09;52.69;100036.22;146611;620;47012;-74
2023/11/29 14:09:10;;;;;;;;;3.75;3.00;;;;;19.04;52.72;100036.22;146604;631;47010;-76
2023/11/29 14:12:09;;;;;;;;;3.33;2.00;;;;;18.99;52.82;100042.28;146614;600;47012;-75
2023/11/29 14:15:08;;;;;;;;;3.00;2.00;;;;;18.94;52.41;100034.41;146620;656;46021;-74
2023/11/29 14:18:15;;;;;;;;;4.75;2.50;;;;;18.92;52.84;100038.75;146615;708;46016;-76
2023/11/29 14:21:14;;;;;;;;;5.25;5.00;;;;;18.88;52.47;100037.88;146621;661;46043;-76
2023/11/29 14:24:22;;;;;;;;;5.50;4.50;;;;;18.90;52.58;100045.75;146611;665;46017;-76
2023/11/29 14:27:30;;;;;;;;;5.00;5.00;;;;;18.91;52.54;100052.78;146619;618;46020;-75
2023/11/29 14:30:41;;;;;;;;;5.00;3.33;;;;;17.98;52.51;99904.19;146616;623;47012;-77
2023/11/29 14:33:38;;;;;;;;;3.00;3.00;;;;;18.90;53.47;100062.38;146619;583;46020;-75
2023/11/29 14:36:44;;;;;;;;;7.00;6.00;;;;;18.82;54.32;100064.09;146618;564;47012;-77